createdAt,value
2018-06-13T00:01:41.645Z,13.55
2018-06-13T00:04:10.051Z,13.57
2018-06-13T00:06:38.619Z,13.54
2018-06-13T00:09:08.700Z,13.48
2018-06-13T00:11:37.482Z,13.50
2018-06-13T00:14:06.438Z,13.53
2018-06-13T00:16:34.917Z,13.50
2018-06-13T00:19:03.329Z,13.49
2018-06-13T00:21:32.021Z,13.50
2018-06-13T00:24:00.485Z,13.42
2018-06-13T00:26:28.897Z,13.30
2018-06-13T00:28:57.397Z,13.23
2018-06-13T00:31:26.128Z,13.24
2018-06-13T00:33:55.489Z,13.25
2018-06-13T00:36:23.901Z,13.24
2018-06-13T00:38:52.848Z,13.19
2018-06-13T00:41:21.261Z,13.11
2018-06-13T00:43:50.121Z,13.05
2018-06-13T00:46:18.662Z,13.01
2018-06-13T00:48:47.061Z,12.98
2018-06-13T00:51:15.483Z,13.03
2018-06-13T00:53:43.985Z,13.08
2018-06-13T00:56:23.894Z,13.08
2018-06-13T00:58:52.331Z,13.10
2018-06-13T01:01:20.737Z,13.05
2018-06-13T01:03:49.648Z,13.00
2018-06-13T01:06:18.097Z,12.94
2018-06-13T01:08:46.506Z,12.91
2018-06-13T01:11:15.108Z,12.88
2018-06-13T01:13:43.731Z,12.88
2018-06-13T01:16:12.142Z,12.92
2018-06-13T01:18:40.932Z,12.94
2018-06-13T01:21:09.357Z,12.93
2018-06-13T01:23:38.218Z,12.85
2018-06-13T01:26:06.966Z,12.83
2018-06-13T01:28:35.413Z,12.83
2018-06-13T01:31:03.967Z,12.84
2018-06-13T01:33:32.554Z,12.84
2018-06-13T01:36:01.020Z,12.86
2018-06-13T01:38:36.773Z,12.85
2018-06-13T01:41:05.201Z,12.82
2018-06-13T01:43:33.621Z,12.81
2018-06-13T01:46:02.273Z,12.80
2018-06-13T01:48:30.734Z,12.79
2018-06-13T01:50:59.642Z,12.78
2018-06-13T01:53:29.593Z,12.78
2018-06-13T01:55:58.125Z,12.78
2018-06-13T01:58:26.685Z,12.80
2018-06-13T02:00:55.338Z,12.80
2018-06-13T02:03:23.788Z,12.80
2018-06-13T02:05:52.411Z,12.77
2018-06-13T02:08:20.929Z,12.76
2018-06-13T02:10:49.361Z,12.77
2018-06-13T02:13:17.876Z,12.77
2018-06-13T02:15:46.704Z,12.76
2018-06-13T02:18:15.121Z,12.68
2018-06-13T02:20:43.538Z,12.60
2018-06-13T02:23:12.370Z,12.54
2018-06-13T02:25:40.805Z,12.51
2018-06-13T02:28:09.218Z,12.49
2018-06-13T02:30:37.701Z,12.50
2018-06-13T02:33:06.269Z,12.56
2018-06-13T02:35:34.857Z,12.63
2018-06-13T02:38:03.282Z,12.63
2018-06-13T02:40:31.713Z,12.66
2018-06-13T02:43:00.538Z,12.68
2018-06-13T02:45:30.168Z,12.71
2018-06-13T02:47:58.577Z,12.75
2018-06-13T02:50:27.099Z,12.81
2018-06-13T02:52:55.767Z,12.89
2018-06-13T02:55:24.212Z,12.92
2018-06-13T02:57:52.954Z,12.96
2018-06-13T03:00:21.380Z,12.82
2018-06-13T03:02:49.829Z,13.01
2018-06-13T03:05:18.405Z,13.06
2018-06-13T03:07:47.166Z,13.09
2018-06-13T03:10:15.745Z,13.11
2018-06-13T03:12:44.217Z,13.12
2018-06-13T03:15:13.131Z,13.12
2018-06-13T03:17:41.654Z,13.15
2018-06-13T03:20:10.062Z,13.17
2018-06-13T03:22:38.566Z,13.19
2018-06-13T03:25:08.730Z,13.22
2018-06-13T03:27:37.153Z,13.24
2018-06-13T03:30:05.876Z,13.27
2018-06-13T03:32:34.334Z,13.31
2018-06-13T03:35:02.746Z,13.33
2018-06-13T03:37:31.359Z,13.36
2018-06-13T03:40:00.058Z,13.39
2018-06-13T03:42:28.473Z,13.43
2018-06-13T03:44:57.357Z,13.46
2018-06-13T03:47:26.378Z,13.50
2018-06-13T03:49:54.786Z,13.54
2018-06-13T03:52:23.437Z,13.60
2018-06-13T03:54:52.160Z,13.65
2018-06-13T03:57:20.608Z,13.70
2018-06-13T03:59:49.029Z,13.73
2018-06-13T04:02:17.994Z,13.79
2018-06-13T04:04:46.406Z,13.82
2018-06-13T04:07:15.530Z,13.86
2018-06-13T04:09:44.267Z,13.91
2018-06-13T04:12:13.006Z,13.94
2018-06-13T04:14:41.629Z,13.97
2018-06-13T04:17:10.106Z,13.95
2018-06-13T04:19:39.629Z,13.96
2018-06-13T04:22:08.558Z,13.98
2018-06-13T04:24:36.991Z,14.02
2018-06-13T04:27:05.637Z,14.07
2018-06-13T04:29:34.131Z,14.09
2018-06-13T04:32:02.556Z,14.16
2018-06-13T04:34:31.379Z,14.22
2018-06-13T04:36:59.918Z,14.26
2018-06-13T04:39:28.376Z,14.30
2018-06-13T04:41:56.967Z,14.36
2018-06-13T04:44:25.598Z,14.43
2018-06-13T04:46:54.082Z,14.54
2018-06-13T04:49:22.493Z,14.63
2018-06-13T04:51:51.549Z,14.76
2018-06-13T04:54:19.985Z,14.98
2018-06-13T04:56:48.389Z,15.21
2018-06-13T04:59:16.984Z,15.45
2018-06-13T05:01:45.425Z,15.57
2018-06-13T05:04:13.861Z,15.66
2018-06-13T05:06:42.645Z,15.68
2018-06-13T05:09:12.073Z,15.78
2018-06-13T05:11:40.485Z,15.92
2018-06-13T05:14:09.054Z,16.08
2018-06-13T05:16:37.589Z,16.15
2018-06-13T05:19:06.013Z,16.11
2018-06-13T05:21:34.625Z,16.14
2018-06-13T05:24:03.054Z,16.27
2018-06-13T05:26:31.514Z,16.36
2018-06-13T05:29:00.878Z,16.48
2018-06-13T05:31:29.604Z,16.43
2018-06-13T05:33:58.026Z,16.39
2018-06-13T05:36:26.869Z,16.35
2018-06-13T05:38:55.319Z,16.31
2018-06-13T05:41:23.774Z,16.31
2018-06-13T05:43:52.667Z,16.36
2018-06-13T05:46:21.103Z,16.41
2018-06-13T05:48:49.521Z,16.39
2018-06-13T05:51:18.473Z,16.31
2018-06-13T05:53:46.940Z,16.32
2018-06-13T05:56:15.433Z,16.37
2018-06-13T05:58:43.925Z,16.42
2018-06-13T06:01:12.459Z,16.49
2018-06-13T06:03:40.845Z,16.56
2018-06-13T06:06:09.996Z,16.65
2018-06-13T06:08:38.467Z,16.71
2018-06-13T06:11:06.877Z,16.74
2018-06-13T06:13:35.777Z,16.76
2018-06-13T06:16:04.659Z,16.81
2018-06-13T06:18:33.110Z,16.87
2018-06-13T06:21:01.551Z,16.88
2018-06-13T06:23:30.076Z,16.91
2018-06-13T06:25:58.522Z,16.94
2018-06-13T06:28:27.229Z,17.00
2018-06-13T06:30:55.824Z,17.04
2018-06-13T06:33:24.233Z,17.10
2018-06-13T06:35:53.153Z,17.11
2018-06-13T06:38:21.674Z,17.15
2018-06-13T06:40:50.089Z,17.10
2018-06-13T06:43:18.714Z,17.08
2018-06-13T06:45:47.226Z,17.03
2018-06-13T06:48:15.641Z,17.00
2018-06-13T06:50:44.391Z,17.04
2018-06-13T06:53:12.924Z,17.07
2018-06-13T06:55:41.467Z,17.12
2018-06-13T06:58:09.990Z,17.29
2018-06-13T07:00:38.514Z,17.44
2018-06-13T07:03:06.967Z,17.59
2018-06-13T07:05:35.961Z,17.77
2018-06-13T07:08:04.409Z,17.96
2018-06-13T07:10:32.845Z,18.14
2018-06-13T07:13:01.306Z,18.31
2018-06-13T07:15:29.817Z,18.53
2018-06-13T07:17:58.250Z,18.68
2018-06-13T07:20:26.853Z,18.88
2018-06-13T07:22:55.437Z,19.14
2018-06-13T07:25:24.073Z,19.26
2018-06-13T07:27:52.922Z,19.40
2018-06-13T07:30:21.597Z,19.60
2018-06-13T07:32:50.197Z,19.78
2018-06-13T07:35:18.953Z,20.02
2018-06-13T07:37:47.501Z,20.18
2018-06-13T07:40:15.945Z,20.39
2018-06-13T07:42:44.625Z,20.98
2018-06-13T07:45:13.506Z,21.69
2018-06-13T07:47:42.066Z,22.34
2018-06-13T07:50:10.470Z,22.94
2018-06-13T07:52:39.169Z,23.56
2018-06-13T07:55:07.823Z,23.76
2018-06-13T07:57:36.243Z,23.76
2018-06-13T08:00:05.549Z,24.03
2018-06-13T08:02:35.125Z,24.15
2018-06-13T08:05:03.667Z,24.35
2018-06-13T08:07:32.436Z,24.57
2018-06-13T08:10:00.993Z,24.71
2018-06-13T08:12:29.466Z,24.81
2018-06-13T08:14:58.170Z,24.86
2018-06-13T08:17:26.905Z,24.88
2018-06-13T08:19:55.362Z,24.86
2018-06-13T08:22:24.309Z,25.04
2018-06-13T08:24:53.954Z,25.28
2018-06-13T08:27:22.498Z,25.52
2018-06-13T08:29:50.927Z,25.69
2018-06-13T08:32:20.263Z,25.29
2018-06-13T08:34:48.681Z,25.02
2018-06-13T08:37:17.525Z,24.90
2018-06-13T08:39:46.061Z,24.63
2018-06-13T08:42:14.458Z,24.48
2018-06-13T08:44:43.259Z,24.80
2018-06-13T08:47:11.854Z,25.09
2018-06-13T08:49:40.270Z,25.43
2018-06-13T08:52:09.162Z,25.59
2018-06-13T08:54:37.804Z,25.49
2018-06-13T08:57:06.515Z,25.42
2018-06-13T08:59:34.957Z,25.61
2018-06-13T09:02:03.869Z,25.70
2018-06-13T09:04:32.288Z,25.49
2018-06-13T09:07:00.906Z,24.99
2018-06-13T09:09:29.619Z,24.55
2018-06-13T09:11:58.066Z,24.48
2018-06-13T09:14:26.757Z,24.46
2018-06-13T09:16:55.714Z,24.31
2018-06-13T09:19:24.117Z,24.07
2018-06-13T09:21:52.657Z,24.01
2018-06-13T09:24:21.154Z,23.71
2018-06-13T09:26:49.562Z,23.52
2018-06-13T09:29:18.265Z,23.46
2018-06-13T09:31:46.780Z,23.24
2018-06-13T09:34:15.514Z,23.17
2018-06-13T09:36:43.958Z,23.11
2018-06-13T09:39:12.441Z,22.89
2018-06-13T09:41:46.123Z,22.76
2018-06-13T09:44:14.743Z,22.84
2018-06-13T09:46:48.918Z,22.92
2018-06-13T09:49:11.660Z,23.13
2018-06-13T09:51:40.642Z,23.29
2018-06-13T09:54:09.061Z,23.27
2018-06-13T09:56:37.527Z,23.34
2018-06-13T09:59:11.647Z,23.30
2018-06-13T10:01:45.455Z,23.13
2018-06-13T10:04:14.417Z,23.21
2018-06-13T10:06:42.914Z,23.36
2018-06-13T10:09:11.498Z,23.45
2018-06-13T10:11:40.270Z,23.52
2018-06-13T10:14:08.689Z,23.53
2018-06-13T10:16:37.130Z,23.68
2018-06-13T10:19:05.799Z,23.83
2018-06-13T10:21:34.233Z,24.05
2018-06-13T10:24:02.806Z,24.23
2018-06-13T10:26:31.660Z,24.41
2018-06-13T10:29:00.141Z,24.49
2018-06-13T10:31:28.717Z,24.77
2018-06-13T10:33:57.525Z,25.15
2018-06-13T10:36:26.150Z,25.19
2018-06-13T10:38:54.579Z,24.98
2018-06-13T10:41:23.082Z,25.01
2018-06-13T10:43:51.556Z,25.10
2018-06-13T10:46:20.008Z,25.30
2018-06-13T10:48:48.902Z,25.60
2018-06-13T10:51:17.374Z,25.77
2018-06-13T10:53:45.803Z,26.05
2018-06-13T10:56:14.751Z,26.14
2018-06-13T10:58:43.402Z,25.81
2018-06-13T11:01:12.199Z,25.34
2018-06-13T11:03:41.014Z,25.43
2018-06-13T11:06:09.489Z,25.73
2018-06-13T11:08:37.929Z,25.66
2018-06-13T11:11:06.864Z,25.41
2018-06-13T11:13:35.277Z,25.22
2018-06-13T11:16:03.730Z,25.33
2018-06-13T11:18:32.220Z,25.33
2018-06-13T11:21:00.649Z,25.03
2018-06-13T11:23:29.910Z,25.08
2018-06-13T11:25:58.900Z,24.68
2018-06-13T11:28:27.345Z,24.71
2018-06-13T11:30:55.786Z,24.50
2018-06-13T11:33:24.390Z,24.42
2018-06-13T11:35:52.808Z,24.09
2018-06-13T11:38:21.270Z,23.74
2018-06-13T11:40:49.757Z,23.17
2018-06-13T11:43:18.233Z,22.52
2018-06-13T11:45:46.678Z,22.17
2018-06-13T11:48:15.243Z,21.81
2018-06-13T11:50:43.678Z,21.48
2018-06-13T11:53:12.168Z,21.45
2018-06-13T11:55:40.766Z,21.61
2018-06-13T11:58:09.182Z,21.70
2018-06-13T12:00:37.627Z,21.58
2018-06-13T12:03:06.199Z,21.59
2018-06-13T12:05:34.893Z,21.46
2018-06-13T12:08:03.373Z,21.28
2018-06-13T12:10:32.406Z,21.21
2018-06-13T12:13:00.994Z,21.21
2018-06-13T12:15:29.461Z,21.25
2018-06-13T12:17:58.100Z,21.20
2018-06-13T12:20:26.585Z,21.16
2018-06-13T12:22:55.062Z,21.09
2018-06-13T12:25:23.594Z,21.08
2018-06-13T12:27:52.593Z,21.00
2018-06-13T12:30:21.133Z,20.93
2018-06-13T12:32:49.721Z,20.76
2018-06-13T12:35:18.694Z,20.64
2018-06-13T12:37:47.415Z,20.52
2018-06-13T12:40:15.865Z,20.40
2018-06-13T12:42:44.537Z,20.25
2018-06-13T12:45:12.977Z,20.21
2018-06-13T12:47:41.480Z,20.17
2018-06-13T12:50:10.314Z,20.21
2018-06-13T12:52:39.001Z,20.11
2018-06-13T12:55:07.872Z,19.97
2018-06-13T12:57:36.654Z,19.90
2018-06-13T13:00:05.744Z,19.91
2018-06-13T13:02:34.563Z,19.79
2018-06-13T13:05:03.327Z,19.72
2018-06-13T13:07:31.929Z,19.63
2018-06-13T13:10:00.685Z,19.58
2018-06-13T13:12:29.372Z,19.49
2018-06-13T13:14:57.851Z,19.41
2018-06-13T13:17:26.286Z,19.27
2018-06-13T13:19:55.041Z,17.97
2018-06-13T13:22:23.481Z,19.02
2018-06-13T13:24:52.090Z,18.99
2018-06-13T13:27:20.865Z,18.95
2018-06-13T13:29:49.336Z,18.86
2018-06-13T13:32:17.754Z,18.77
2018-06-13T13:34:46.245Z,18.72
2018-06-13T13:37:15.470Z,18.69
2018-06-13T13:39:44.052Z,18.54
2018-06-13T13:42:12.469Z,18.43
2018-06-13T13:44:40.913Z,18.50
2018-06-13T13:47:09.477Z,18.44
2018-06-13T13:49:37.889Z,18.46
2018-06-13T13:52:06.567Z,18.39
2018-06-13T13:54:34.985Z,18.24
2018-06-13T13:57:03.561Z,18.23
2018-06-13T13:59:32.274Z,18.14
2018-06-13T14:02:00.732Z,18.00
2018-06-13T14:04:29.232Z,17.94
2018-06-13T14:06:57.760Z,17.88
2018-06-13T14:09:26.338Z,17.78
2018-06-13T14:11:54.768Z,17.72
2018-06-13T14:14:23.238Z,17.66
2018-06-13T14:16:52.021Z,17.62
2018-06-13T14:19:20.582Z,17.59
2018-06-13T14:21:49.242Z,17.53
2018-06-13T14:24:17.774Z,17.46
2018-06-13T14:26:46.276Z,17.41
2018-06-13T14:29:15.001Z,17.41
2018-06-13T14:31:43.825Z,17.42
2018-06-13T14:34:12.251Z,17.43
2018-06-13T14:36:40.705Z,17.38
2018-06-13T14:39:10.718Z,17.34
2018-06-13T14:41:39.378Z,17.31
2018-06-13T14:44:08.217Z,17.25
2018-06-13T14:46:36.750Z,17.09
2018-06-13T14:49:05.176Z,16.98
2018-06-13T14:51:33.943Z,16.97
2018-06-13T14:54:02.371Z,16.97
2018-06-13T14:56:32.131Z,16.97
2018-06-13T14:59:01.967Z,16.95
2018-06-13T15:01:31.146Z,16.95
2018-06-13T15:03:59.901Z,16.86
2018-06-13T15:06:28.348Z,16.87
2018-06-13T15:08:57.066Z,16.88
2018-06-13T15:11:25.635Z,16.85
2018-06-13T15:13:54.094Z,16.87
2018-06-13T15:16:22.801Z,16.90
2018-06-13T15:18:51.432Z,16.83
2018-06-13T15:21:19.915Z,16.80
2018-06-13T15:23:48.486Z,16.74
2018-06-13T15:26:16.897Z,16.72
2018-06-13T15:28:45.705Z,16.74
2018-06-13T15:31:14.241Z,16.69
2018-06-13T15:33:42.838Z,16.53
2018-06-13T15:36:11.341Z,16.42
2018-06-13T15:38:40.230Z,16.42
2018-06-13T15:41:10.049Z,16.37
2018-06-13T15:43:39.118Z,16.37
2018-06-13T15:46:07.898Z,16.32
2018-06-13T15:48:36.580Z,16.23
2018-06-13T15:51:05.347Z,16.15
2018-06-13T15:53:33.969Z,16.03
2018-06-13T15:56:02.631Z,15.96
2018-06-13T15:58:32.250Z,15.88
2018-06-13T16:01:01.101Z,15.83
2018-06-13T16:03:29.549Z,15.77
2018-06-13T16:05:58.145Z,15.73
2018-06-13T16:08:27.050Z,15.70
2018-06-13T16:10:55.544Z,15.68
2018-06-13T16:13:24.061Z,15.63
2018-06-13T16:15:52.917Z,15.58
2018-06-13T16:18:21.346Z,15.53
2018-06-13T16:20:49.892Z,15.50
2018-06-13T16:23:18.454Z,15.48
2018-06-13T16:25:47.018Z,15.49
2018-06-13T16:28:15.585Z,15.51
2018-06-13T16:30:45.242Z,15.54
2018-06-13T16:33:13.665Z,15.56
2018-06-13T16:35:42.166Z,15.62
2018-06-13T16:38:11.098Z,15.70
2018-06-13T16:40:39.537Z,15.76
2018-06-13T16:43:08.469Z,15.83
2018-06-13T16:45:37.245Z,15.89
2018-06-13T16:48:05.840Z,15.97
2018-06-13T16:50:47.098Z,16.01
2018-06-13T16:53:26.697Z,16.09
2018-06-13T16:55:55.335Z,16.17
2018-06-13T16:58:23.741Z,16.24
2018-06-13T17:00:52.163Z,16.26
2018-06-13T17:03:21.558Z,16.25
2018-06-13T17:05:50.546Z,16.26
2018-06-13T17:08:18.998Z,16.30
2018-06-13T17:10:47.789Z,16.35
2018-06-13T17:13:16.202Z,16.43
2018-06-13T17:15:44.624Z,16.54
2018-06-13T17:18:13.815Z,16.63
2018-06-13T17:20:42.243Z,16.70
2018-06-13T17:23:10.653Z,16.63
2018-06-13T17:25:39.271Z,16.56
2018-06-13T17:28:07.689Z,16.56
2018-06-13T17:30:36.121Z,16.58
2018-06-13T17:33:04.913Z,16.56
2018-06-13T17:35:33.325Z,16.58
2018-06-13T17:38:01.738Z,16.58
2018-06-13T17:40:30.495Z,16.60
2018-06-13T17:42:58.909Z,16.54
2018-06-13T17:45:27.726Z,16.49
2018-06-13T17:47:56.508Z,16.52
2018-06-13T17:50:24.929Z,16.52
2018-06-13T17:52:53.344Z,16.45
2018-06-13T17:55:22.962Z,16.43
2018-06-13T17:57:51.381Z,16.45
2018-06-13T18:00:19.854Z,16.41
2018-06-13T18:02:48.461Z,16.38
2018-06-13T18:05:16.877Z,16.36
2018-06-13T18:07:45.294Z,16.36
2018-06-13T18:10:13.917Z,16.31
2018-06-13T18:12:42.333Z,16.30
2018-06-13T18:15:10.746Z,16.27
2018-06-13T18:17:39.713Z,16.21
2018-06-13T18:20:08.273Z,16.16
2018-06-13T18:22:37.497Z,16.11
2018-06-13T18:25:06.129Z,16.11
2018-06-13T18:27:34.554Z,16.10
2018-06-13T18:30:03.176Z,16.08
2018-06-13T18:32:31.686Z,16.10
2018-06-13T18:35:00.172Z,16.11
2018-06-13T18:37:28.596Z,16.12
2018-06-13T18:39:57.209Z,16.15
2018-06-13T18:42:25.626Z,16.17
2018-06-13T18:44:54.046Z,16.14
2018-06-13T18:47:22.785Z,16.13
2018-06-13T18:49:51.357Z,16.11
2018-06-13T18:52:19.786Z,16.07
2018-06-13T18:54:48.325Z,16.05
2018-06-13T18:57:16.757Z,16.02
2018-06-13T18:59:45.178Z,16.01
2018-06-13T19:02:14.514Z,15.98
2018-06-13T19:04:42.931Z,15.98
2018-06-13T19:07:11.350Z,16.01
2018-06-13T19:09:39.898Z,15.99
2018-06-13T19:12:08.324Z,16.00
2018-06-13T19:14:36.744Z,16.01
2018-06-13T19:17:05.417Z,16.02
2018-06-13T19:19:33.846Z,16.04
2018-06-13T19:22:02.277Z,16.04
2018-06-13T19:24:30.993Z,16.03
2018-06-13T19:26:59.415Z,16.03
2018-06-13T19:29:27.938Z,16.03
2018-06-13T19:31:56.584Z,16.02
2018-06-13T19:34:25.012Z,15.99
2018-06-13T19:36:53.459Z,15.98
2018-06-13T19:39:22.114Z,15.96
2018-06-13T19:41:50.522Z,15.93
2018-06-13T19:44:18.958Z,15.88
2018-06-13T19:46:47.729Z,15.87
2018-06-13T19:49:16.291Z,15.83
2018-06-13T19:51:44.895Z,15.81
2018-06-13T19:54:18.738Z,15.82
2018-06-13T19:56:47.474Z,15.79
2018-06-13T19:59:16.061Z,15.78
2018-06-13T20:01:44.523Z,15.76
2018-06-13T20:04:18.134Z,15.73
2018-06-13T20:06:46.611Z,15.71
2018-06-13T20:09:15.157Z,15.71
2018-06-13T20:11:43.589Z,15.69
2018-06-13T20:14:17.469Z,15.66
2018-06-13T20:16:52.289Z,15.63
2018-06-13T20:19:26.106Z,14.78
2018-06-13T20:21:56.062Z,15.58
2018-06-13T20:24:24.645Z,15.54
2018-06-13T20:27:00.075Z,15.54
2018-06-13T20:29:33.770Z,15.52
2018-06-13T20:32:02.445Z,15.50
2018-06-13T20:34:30.934Z,15.46
2018-06-13T20:37:10.750Z,15.45
2018-06-13T20:39:39.297Z,15.43
2018-06-13T20:42:07.927Z,15.45
2018-06-13T20:44:36.552Z,15.41
2018-06-13T20:47:05.452Z,15.40
2018-06-13T20:49:34.304Z,15.39
2018-06-13T20:52:03.664Z,15.37
2018-06-13T20:54:32.148Z,15.34
2018-06-13T20:57:00.572Z,15.31
2018-06-13T20:59:29.172Z,15.31
2018-06-13T21:01:57.600Z,15.29
2018-06-13T21:04:26.857Z,15.30
2018-06-13T21:06:55.382Z,15.15
2018-06-13T21:09:23.805Z,15.31
2018-06-13T21:14:42.563Z,15.29
2018-06-13T21:17:11.069Z,15.30
2018-06-13T21:19:39.560Z,15.30
2018-06-13T21:22:08.303Z,15.28
2018-06-13T21:24:36.927Z,15.31
2018-06-13T21:27:05.931Z,15.27
2018-06-13T21:29:34.920Z,15.24
2018-06-13T21:32:03.464Z,15.23
2018-06-13T21:34:31.917Z,15.23
2018-06-13T21:37:00.863Z,15.25
2018-06-13T21:39:29.305Z,15.23
2018-06-13T21:41:57.709Z,15.24
2018-06-13T21:44:26.286Z,15.24
2018-06-13T21:46:54.728Z,15.19
2018-06-13T21:49:23.190Z,15.18
2018-06-13T21:51:51.759Z,15.15
2018-06-13T21:54:20.363Z,15.13
2018-06-13T21:56:48.761Z,15.11
2018-06-13T21:59:17.253Z,15.08
2018-06-13T22:01:45.729Z,15.04
2018-06-13T22:04:14.121Z,15.02
2018-06-13T22:06:42.635Z,14.97
2018-06-13T22:09:12.053Z,14.94
2018-06-13T22:11:45.669Z,14.92
2018-06-13T22:14:14.661Z,14.87
2018-06-13T22:16:43.065Z,14.84
2018-06-13T22:19:11.485Z,14.79
2018-06-13T22:21:40.033Z,14.76
2018-06-13T22:24:08.457Z,14.73
2018-06-13T22:26:36.891Z,14.71
2018-06-13T22:29:05.766Z,14.67
2018-06-13T22:31:34.237Z,14.63
2018-06-13T22:34:03.195Z,14.59
2018-06-13T22:36:31.801Z,14.61
2018-06-13T22:39:00.233Z,14.63
2018-06-13T22:41:28.681Z,14.60
2018-06-13T22:43:57.541Z,14.60
2018-06-13T22:46:26.283Z,14.56
2018-06-13T22:48:54.783Z,14.54
2018-06-13T22:51:23.433Z,14.53
2018-06-13T22:53:52.144Z,14.52
2018-06-13T22:56:20.643Z,14.50
2018-06-13T22:58:49.665Z,14.47
2018-06-13T23:01:18.094Z,14.45
2018-06-13T23:03:46.757Z,14.44
2018-06-13T23:06:15.810Z,14.41
2018-06-13T23:08:44.216Z,14.36
2018-06-13T23:11:12.621Z,14.35
2018-06-13T23:13:41.305Z,14.34
2018-06-13T23:16:09.718Z,14.34
2018-06-13T23:18:38.125Z,14.35
2018-06-13T23:21:06.649Z,14.34
2018-06-13T23:23:35.058Z,14.36
2018-06-13T23:26:03.461Z,14.37
2018-06-13T23:28:32.547Z,14.42
2018-06-13T23:31:01.410Z,14.48
2018-06-13T23:33:29.845Z,14.53
2018-06-13T23:35:58.405Z,14.57
2018-06-13T23:38:26.805Z,14.60
2018-06-13T23:40:55.214Z,14.63
2018-06-13T23:43:23.811Z,14.67
2018-06-13T23:45:52.224Z,14.71
2018-06-13T23:48:20.625Z,14.75
2018-06-13T23:50:49.097Z,14.77
2018-06-13T23:53:17.968Z,14.77
2018-06-13T23:55:46.655Z,14.79
2018-06-13T23:58:15.448Z,14.82
